createdAt,value
2023-03-24T00:01:02.586Z,9.05
2023-03-24T00:06:01.843Z,8.35
2023-03-24T00:11:01.520Z,8.07
2023-03-24T00:15:59.285Z,7.85
2023-03-24T00:20:58.813Z,7.15
2023-03-24T00:26:06.132Z,7.78
2023-03-24T00:31:05.183Z,6.60
2023-03-24T00:36:03.825Z,6.75
2023-03-24T00:41:01.625Z,6.93
2023-03-24T00:46:03.979Z,7.22
2023-03-24T00:51:04.946Z,6.60
2023-03-24T00:56:01.579Z,6.53
2023-03-24T01:00:58.356Z,6.60
2023-03-24T01:06:02.945Z,7.25
2023-03-24T01:11:01.050Z,7.75
2023-03-24T01:15:58.471Z,6.57
2023-03-24T01:20:54.964Z,7.43
2023-03-24T01:25:52.416Z,5.47
2023-03-24T01:30:49.745Z,5.45
2023-03-24T01:35:46.301Z,6.20
2023-03-24T01:40:46.282Z,5.03
2023-03-24T01:45:54.399Z,5.78
2023-03-24T01:50:56.805Z,5.72
2023-03-24T01:55:54.655Z,6.15
2023-03-24T02:00:51.143Z,5.50
2023-03-24T02:05:50.581Z,5.22
2023-03-24T02:10:48.027Z,5.03
2023-03-24T02:16:38.817Z,6.13
2023-03-24T02:22:10.373Z,5.50
2023-03-24T02:27:29.952Z,6.10
2023-03-24T02:32:38.945Z,6.50
2023-03-24T02:38:13.075Z,5.20
2023-03-24T02:43:32.232Z,5.18
2023-03-24T02:48:49.132Z,5.28
2023-03-24T02:54:09.847Z,4.82
2023-03-24T02:59:09.876Z,6.30
2023-03-24T03:04:12.446Z,5.68
2023-03-24T03:09:14.435Z,5.50
2023-03-24T03:14:17.872Z,6.28
2023-03-24T03:19:19.439Z,6.18
2023-03-24T03:24:26.544Z,5.50
2023-03-24T03:29:29.009Z,5.07
2023-03-24T03:34:37.765Z,6.05
2023-03-24T03:39:47.965Z,4.90
2023-03-24T03:44:44.559Z,5.32
2023-03-24T03:49:41.267Z,5.68
2023-03-24T03:54:40.189Z,5.55
2023-03-24T03:59:38.877Z,5.90
2023-03-24T04:05:07.655Z,5.93
2023-03-24T04:10:30.934Z,5.50
2023-03-24T04:15:55.854Z,5.57
2023-03-24T04:21:19.987Z,6.13
2023-03-24T04:26:28.015Z,6.43
2023-03-24T04:31:53.818Z,5.35
2023-03-24T04:36:55.466Z,6.03
2023-03-24T04:41:53.431Z,6.20
2023-03-24T04:46:51.908Z,6.20
2023-03-24T04:51:48.293Z,5.38
2023-03-24T04:56:48.529Z,5.82
2023-03-24T05:01:51.584Z,6.03
2023-03-24T05:06:49.636Z,6.35
2023-03-24T05:11:46.122Z,5.95
2023-03-24T05:16:43.018Z,5.35
2023-03-24T05:21:39.827Z,5.63
2023-03-24T05:26:36.297Z,5.30
2023-03-24T05:31:35.585Z,5.25
2023-03-24T05:36:32.177Z,6.00
2023-03-24T05:41:28.612Z,4.57
2023-03-24T05:46:26.408Z,5.25
2023-03-24T05:51:23.403Z,5.20
2023-03-24T05:56:19.848Z,5.60
2023-03-24T06:01:18.237Z,5.68
2023-03-24T06:06:14.688Z,5.28
2023-03-24T06:11:11.885Z,5.93
2023-03-24T06:16:09.685Z,6.32
2023-03-24T06:21:07.099Z,5.18
2023-03-24T06:26:09.331Z,5.20
2023-03-24T06:31:06.429Z,5.00
2023-03-24T06:36:03.011Z,6.05
2023-03-24T06:41:03.574Z,4.80
2023-03-24T06:46:00.535Z,4.53
2023-03-24T06:50:56.985Z,5.03
2023-03-24T06:55:53.369Z,5.07
2023-03-24T07:00:50.303Z,5.45
2023-03-24T07:05:46.729Z,4.85
2023-03-24T07:10:43.622Z,5.68
2023-03-24T07:15:40.479Z,5.55
2023-03-24T07:20:37.815Z,6.35
2023-03-24T07:25:34.282Z,5.75
2023-03-24T07:30:39.778Z,6.32
2023-03-24T07:35:37.236Z,5.70
2023-03-24T07:40:35.372Z,6.03
2023-03-24T07:45:32.397Z,6.57
2023-03-24T07:50:30.641Z,6.00
2023-03-24T07:55:27.216Z,5.60
2023-03-24T08:00:25.011Z,5.72
2023-03-24T08:05:22.952Z,5.57
2023-03-24T08:10:21.394Z,4.70
2023-03-24T08:15:18.182Z,4.68
2023-03-24T08:20:15.185Z,4.85
2023-03-24T08:25:13.063Z,4.75
2023-03-24T08:30:10.774Z,4.35
2023-03-24T08:35:07.330Z,4.00
2023-03-24T08:40:05.344Z,4.00
2023-03-24T08:45:02.041Z,4.05
2023-03-24T08:49:58.716Z,4.30
2023-03-24T08:54:55.081Z,4.10
2023-03-24T08:59:51.653Z,4.22
2023-03-24T09:17:22.786Z,4.72
2023-03-24T09:22:19.332Z,4.95
2023-03-24T09:27:16.963Z,4.97
2023-03-24T09:32:13.450Z,5.30
2023-03-24T09:37:09.950Z,5.13
2023-03-24T09:42:08.965Z,4.68
2023-03-24T09:47:13.074Z,5.40
2023-03-24T09:52:24.616Z,4.95
2023-03-24T09:57:37.605Z,5.00
2023-03-24T10:02:34.128Z,5.60
2023-03-24T10:07:37.698Z,5.38
2023-03-24T10:12:39.602Z,4.80
2023-03-24T10:18:04.345Z,4.97
2023-03-24T10:23:07.774Z,5.38
2023-03-24T10:28:19.960Z,5.20
2023-03-24T10:33:16.520Z,5.97
2023-03-24T10:38:22.400Z,5.10
2023-03-24T10:43:19.304Z,5.60
2023-03-24T10:48:44.601Z,6.03
2023-03-24T10:53:41.762Z,6.20
2023-03-24T10:58:42.947Z,5.68
2023-03-24T11:03:39.885Z,6.40
2023-03-24T11:08:39.023Z,6.15
2023-03-24T11:13:35.742Z,6.35
2023-03-24T11:18:32.951Z,6.55
2023-03-24T11:23:35.154Z,5.97
2023-03-24T11:28:37.981Z,6.18
2023-03-24T11:33:43.112Z,7.03
2023-03-24T11:38:39.646Z,6.88
2023-03-24T11:43:36.094Z,6.20
2023-03-24T11:48:48.435Z,6.53
2023-03-24T11:53:50.742Z,6.65
2023-03-24T11:58:56.930Z,7.22
2023-03-24T12:04:35.965Z,6.70
2023-03-24T12:09:49.567Z,6.35
2023-03-24T12:15:27.271Z,6.90
2023-03-24T12:20:32.174Z,6.78
2023-03-24T12:25:39.642Z,6.88
2023-03-24T12:30:41.728Z,6.35
2023-03-24T12:35:49.935Z,7.40
2023-03-24T12:40:49.551Z,5.93
2023-03-24T12:45:55.496Z,6.70
2023-03-24T12:51:11.523Z,7.85
2023-03-24T12:56:33.230Z,7.15
2023-03-24T13:01:35.755Z,7.63
2023-03-24T13:06:59.174Z,8.25
2023-03-24T13:12:03.919Z,7.75
2023-03-24T13:17:06.051Z,7.03
2023-03-24T13:22:06.573Z,7.68
2023-03-24T13:27:20.564Z,7.07
2023-03-24T13:32:25.849Z,7.78
2023-03-24T13:37:32.990Z,7.35
2023-03-24T13:42:42.196Z,6.70
2023-03-24T13:47:57.868Z,7.10
2023-03-24T13:52:55.297Z,6.97
2023-03-24T13:57:58.182Z,6.75
2023-03-24T14:03:11.958Z,7.47
2023-03-24T14:08:08.352Z,6.55
2023-03-24T14:13:19.598Z,6.75
2023-03-24T14:18:16.407Z,6.60
2023-03-24T14:23:29.081Z,6.85
2023-03-24T14:33:28.873Z,6.50
2023-03-24T14:38:29.241Z,7.20
2023-03-24T14:43:41.396Z,6.88
2023-03-24T14:48:41.197Z,7.10
2023-03-24T14:53:38.466Z,6.43
2023-03-24T14:58:39.053Z,6.57
2023-03-24T15:03:53.832Z,7.00
2023-03-24T15:08:51.334Z,6.40
2023-03-24T15:13:55.084Z,6.60
2023-03-24T15:19:02.445Z,6.10
2023-03-24T15:24:01.152Z,6.95
2023-03-24T15:29:02.106Z,6.43
2023-03-24T15:34:33.858Z,7.00
2023-03-24T15:39:34.618Z,6.90
2023-03-24T15:44:34.595Z,6.55
2023-03-24T15:49:35.601Z,5.93
2023-03-24T15:54:40.606Z,6.30
2023-03-24T15:59:37.423Z,6.45
2023-03-24T16:04:33.869Z,6.40
2023-03-24T16:09:38.827Z,5.68
2023-03-24T16:14:35.878Z,6.05
2023-03-24T16:19:32.954Z,5.82
2023-03-24T16:24:29.603Z,6.53
2023-03-24T16:29:26.263Z,7.60
2023-03-24T16:34:23.717Z,7.40
2023-03-24T16:39:23.882Z,7.15
2023-03-24T16:44:20.930Z,7.70
2023-03-24T16:49:18.536Z,7.70
2023-03-24T16:54:15.524Z,7.32
2023-03-24T16:59:14.728Z,8.20
2023-03-24T17:04:19.093Z,8.00
2023-03-24T17:09:15.581Z,8.13
2023-03-24T17:14:12.405Z,7.43
2023-03-24T17:19:13.808Z,8.10
2023-03-24T17:24:12.941Z,8.10
2023-03-24T17:29:12.009Z,8.40
2023-03-24T17:34:21.628Z,9.00
2023-03-24T17:39:20.684Z,7.75
2023-03-24T17:44:17.476Z,7.25
2023-03-24T17:49:15.630Z,7.93
2023-03-24T17:54:13.499Z,7.40
2023-03-24T17:59:10.728Z,7.68
2023-03-24T18:04:07.956Z,8.15
2023-03-24T18:09:04.903Z,7.75
2023-03-24T18:14:03.247Z,7.10
2023-03-24T18:19:01.826Z,7.40
2023-03-24T18:23:58.610Z,7.32
2023-03-24T18:28:55.539Z,8.10
2023-03-24T18:33:53.800Z,6.28
2023-03-24T18:38:50.609Z,6.35
2023-03-24T18:43:48.103Z,6.65
2023-03-24T18:48:46.644Z,6.13
2023-03-24T18:53:43.443Z,6.65
2023-03-24T18:58:43.283Z,6.75
2023-03-24T19:03:42.135Z,6.60
2023-03-24T19:08:42.223Z,5.88
2023-03-24T19:13:42.103Z,7.03
2023-03-24T19:18:38.626Z,6.85
2023-03-24T19:23:36.480Z,6.72
2023-03-24T19:28:36.259Z,6.72
2023-03-24T19:33:35.939Z,6.40
2023-03-24T19:38:33.605Z,6.50
2023-03-24T19:43:30.253Z,5.93
2023-03-24T19:48:27.339Z,6.30
2023-03-24T19:53:25.099Z,6.20
2023-03-24T19:58:21.801Z,7.22
2023-03-24T20:03:18.510Z,5.95
2023-03-24T20:08:19.422Z,6.45
2023-03-24T20:13:16.053Z,6.18
2023-03-24T20:18:12.876Z,6.00
2023-03-24T20:23:10.577Z,5.70
2023-03-24T20:28:07.376Z,6.13
2023-03-24T20:33:04.190Z,6.30
2023-03-24T20:38:01.161Z,6.35
2023-03-24T20:42:58.098Z,7.03
2023-03-24T20:47:55.084Z,6.13
2023-03-24T20:52:51.986Z,6.15
2023-03-24T20:57:48.688Z,5.32
2023-03-24T21:02:45.731Z,5.70
2023-03-24T21:07:43.974Z,5.03
2023-03-24T21:12:53.006Z,5.25
2023-03-24T21:17:51.746Z,6.50
2023-03-24T21:22:55.848Z,5.13
2023-03-24T21:27:53.258Z,5.70
2023-03-24T21:32:51.710Z,5.35
2023-03-24T21:37:50.173Z,4.75
2023-03-24T21:42:50.254Z,5.35
2023-03-24T21:47:49.498Z,4.95
2023-03-24T21:52:47.299Z,5.10
2023-03-24T21:57:45.367Z,4.78
2023-03-24T22:02:45.323Z,4.35
2023-03-24T22:07:42.363Z,4.72
2023-03-24T22:12:39.304Z,4.60
2023-03-24T22:17:39.546Z,4.50
2023-03-24T22:22:40.079Z,4.80
2023-03-24T22:27:39.905Z,5.10
2023-03-24T22:32:39.104Z,5.20
2023-03-24T22:37:36.283Z,4.90
2023-03-24T22:42:33.668Z,5.32
2023-03-24T22:47:31.089Z,4.90
2023-03-24T22:52:28.222Z,5.50
2023-03-24T22:57:24.705Z,5.00
2023-03-24T23:02:24.519Z,4.68
2023-03-24T23:07:22.158Z,5.20
2023-03-24T23:12:18.538Z,4.90
2023-03-24T23:17:15.739Z,6.15
2023-03-24T23:22:12.177Z,5.70
2023-03-24T23:27:08.651Z,5.40
2023-03-24T23:32:05.666Z,5.60
2023-03-24T23:37:04.943Z,5.30
2023-03-24T23:42:01.534Z,5.65
2023-03-24T23:46:57.937Z,5.13
2023-03-24T23:51:54.518Z,5.70
2023-03-24T23:56:51.340Z,5.82
